Terminal Aerodrome Forecast
Issued by NWS Grand Junction, CO

Home | Current Version | Previous Version | Text Only | Print | Product List | Glossary On
Versions: 1 2 3 4 5 6 7 8 9 10 11 12 13
000
FTUS45 KGJT 222339
TAFGJT
TAF
KGJT 222339Z 2300/2324 29014G23KT P6SM SCT100
     FM230300 01010KT P6SM SCT100
     FM230600 07008KT P6SM BKN110
     FM231700 13006KT P6SM FEW250
     FM232000 16007KT P6SM FEW250=

USA.gov is the U.S. government's official web portal to all federal, state and local government web resources and services.